createdAt,value
2024-04-16T00:00:05.428Z,101329.06
2024-04-16T00:05:17.547Z,101340.72
2024-04-16T00:10:22.124Z,101343.78
2024-04-16T00:15:27.042Z,101349.38
2024-04-16T00:20:32.045Z,101295.47
2024-04-16T00:25:36.197Z,101363.09
2024-04-16T00:30:40.356Z,101347.34
2024-04-16T00:35:45.083Z,101358.97
2024-04-16T00:40:49.318Z,101371.31
2024-04-16T00:46:00.663Z,101369.91
2024-04-16T00:51:04.773Z,101375.50
2024-04-16T00:56:10.754Z,101387.06
2024-04-16T01:01:14.826Z,101387.28
2024-04-16T01:06:19.715Z,101400.44
2024-04-16T01:11:30.870Z,101406.69
2024-04-16T01:16:35.242Z,101425.81
2024-04-16T01:21:39.267Z,101419.94
2024-04-16T01:26:43.137Z,101416.56
2024-04-16T01:31:47.261Z,101421.72
2024-04-16T01:36:51.285Z,101369.44
2024-04-16T01:41:55.313Z,101427.41
2024-04-16T01:46:59.280Z,101419.31
2024-04-16T01:52:03.102Z,101431.78
2024-04-16T01:57:08.070Z,101420.19
2024-04-16T02:02:11.913Z,101426.69
2024-04-16T02:07:15.957Z,101424.72
2024-04-16T02:12:19.904Z,101431.88
2024-04-16T02:17:25.932Z,101438.69
2024-04-16T02:22:29.965Z,101452.03
2024-04-16T02:27:33.739Z,101437.03
2024-04-16T02:32:37.749Z,101445.84
2024-04-16T02:37:41.924Z,101452.28
2024-04-16T02:42:45.939Z,101410.31
2024-04-16T02:47:50.143Z,101455.81
2024-04-16T02:52:53.972Z,101462.44
2024-04-16T02:57:58.101Z,101461.09
2024-04-16T03:03:02.009Z,101478.16
2024-04-16T03:08:06.421Z,101481.16
2024-04-16T03:13:10.538Z,101489.47
2024-04-16T03:18:14.331Z,101486.75
2024-04-16T03:23:18.342Z,101495.53
2024-04-16T03:28:22.158Z,101488.06
2024-04-16T03:33:26.220Z,101492.13
2024-04-16T03:38:31.600Z,101451.19
2024-04-16T03:43:36.449Z,101475.38
2024-04-16T03:48:40.397Z,101469.84
2024-04-16T03:53:44.338Z,101508.66
2024-04-16T03:59:16.924Z,101508.41
2024-04-16T04:04:21.006Z,101513.41
2024-04-16T04:09:24.923Z,101519.16
2024-04-16T04:14:29.078Z,101508.47
2024-04-16T04:19:32.927Z,101523.56
2024-04-16T04:24:37.051Z,101513.97
2024-04-16T04:29:41.024Z,101465.81
2024-04-16T04:34:44.993Z,101513.19
2024-04-16T04:39:49.308Z,101515.31
2024-04-16T04:44:54.182Z,101500.22
2024-04-16T04:49:58.221Z,101499.84
2024-04-16T04:55:05.708Z,101506.38
2024-04-16T05:00:10.334Z,101510.75
2024-04-16T05:05:14.219Z,101510.97
2024-04-16T05:10:18.239Z,101498.38
2024-04-16T05:15:22.368Z,101489.78
2024-04-16T05:20:26.343Z,101501.84
2024-04-16T05:25:30.339Z,101511.72
2024-04-16T05:30:34.216Z,101514.69
2024-04-16T05:35:38.246Z,101503.66
2024-04-16T05:40:42.196Z,101514.34
2024-04-16T05:45:46.451Z,101514.31
2024-04-16T05:50:50.421Z,101524.47
2024-04-16T05:55:54.319Z,101519.53
2024-04-16T06:00:58.419Z,101524.97
2024-04-16T06:06:02.787Z,101519.28
2024-04-16T06:11:07.252Z,101518.28
2024-04-16T06:16:11.324Z,101516.19
2024-04-16T06:21:15.104Z,101516.19
2024-04-16T06:26:19.768Z,101509.88
2024-04-16T06:31:23.722Z,101511.06
2024-04-16T06:36:27.617Z,101503.03
2024-04-16T06:41:32.063Z,101505.53
2024-04-16T06:46:36.047Z,101500.31
2024-04-16T06:51:40.152Z,101506.00
2024-04-16T06:56:43.992Z,101501.91
2024-04-16T07:01:48.011Z,101499.66
2024-04-16T07:06:51.905Z,101507.59
2024-04-16T07:11:55.653Z,101492.25
2024-04-16T07:16:59.583Z,101506.16
2024-04-16T07:22:03.566Z,101501.75
2024-04-16T07:27:08.054Z,101515.81
2024-04-16T07:32:12.047Z,101470.66
2024-04-16T07:37:16.025Z,101496.72
2024-04-16T07:42:20.270Z,101506.97
2024-04-16T07:47:24.355Z,101500.28
2024-04-16T07:52:28.303Z,101509.63
2024-04-16T07:57:32.188Z,101491.38
2024-04-16T08:02:35.953Z,101490.47
2024-04-16T08:07:39.939Z,101489.13
2024-04-16T08:12:43.772Z,101475.88
2024-04-16T08:17:49.167Z,101477.41
2024-04-16T08:22:53.700Z,101449.47
2024-04-16T08:27:57.687Z,101435.13
2024-04-16T08:33:01.698Z,101472.03
2024-04-16T08:38:06.174Z,101472.09
2024-04-16T08:43:11.656Z,101483.16
2024-04-16T08:48:16.583Z,101469.22
2024-04-16T08:53:21.897Z,101474.09
2024-04-16T08:58:25.640Z,101465.22
2024-04-16T09:03:30.209Z,101476.56
2024-04-16T09:08:37.518Z,101474.75
2024-04-16T09:13:45.405Z,101467.66
2024-04-16T09:18:49.558Z,101482.22
2024-04-16T09:23:56.834Z,101479.81
2024-04-16T09:29:00.950Z,101478.09
2024-04-16T09:34:09.439Z,101474.03
2024-04-16T09:39:19.806Z,101478.97
2024-04-16T09:44:23.866Z,101465.31
2024-04-16T09:49:36.159Z,101455.22
2024-04-16T09:54:50.587Z,101472.66
2024-04-16T09:59:54.365Z,101469.56
2024-04-16T10:05:01.203Z,101460.88
2024-04-16T10:10:09.541Z,101486.69
2024-04-16T10:15:17.499Z,101482.66
2024-04-16T10:20:25.721Z,101481.16
2024-04-16T10:25:36.069Z,101479.94
2024-04-16T10:30:41.033Z,101480.53
2024-04-16T10:35:47.803Z,101470.06
2024-04-16T10:40:59.381Z,101479.03
2024-04-16T10:46:08.216Z,101472.47
2024-04-16T10:51:15.670Z,101470.84
2024-04-16T10:56:19.673Z,101464.47
2024-04-16T11:01:25.532Z,101482.00
2024-04-16T11:06:29.654Z,101473.50
2024-04-16T11:11:37.190Z,101460.88
2024-04-16T11:16:43.216Z,101472.06
2024-04-16T11:21:49.259Z,101479.13
2024-04-16T11:26:53.235Z,101468.88
2024-04-16T11:31:57.735Z,101474.84
2024-04-16T11:37:01.951Z,101484.47
2024-04-16T11:42:11.722Z,101479.84
2024-04-16T11:47:16.019Z,101476.66
2024-04-16T11:52:20.534Z,101472.31
2024-04-16T11:57:24.390Z,101479.34
2024-04-16T12:02:28.290Z,101481.16
2024-04-16T12:07:32.396Z,101475.63
2024-04-16T12:12:36.300Z,101481.00
2024-04-16T12:17:40.510Z,101478.47
2024-04-16T12:22:44.439Z,101476.84
2024-04-16T12:27:49.190Z,101481.00
2024-04-16T12:33:01.288Z,101475.88
2024-04-16T12:38:10.043Z,101488.13
2024-04-16T12:43:16.339Z,101481.88
2024-04-16T12:48:22.425Z,101477.00
2024-04-16T12:53:26.266Z,101460.28
2024-04-16T12:58:30.266Z,101487.09
2024-04-16T13:03:34.243Z,101441.50
2024-04-16T13:08:38.399Z,101494.81
2024-04-16T13:13:42.377Z,101499.75
2024-04-16T13:18:46.346Z,101497.66
2024-04-16T13:23:50.331Z,101494.81
2024-04-16T13:28:54.640Z,101491.94
2024-04-16T13:33:58.618Z,101507.03
2024-04-16T13:39:02.603Z,101510.81
2024-04-16T13:44:06.484Z,101468.91
2024-04-16T13:49:10.519Z,101518.25
2024-04-16T13:54:14.490Z,101534.94
2024-04-16T13:59:18.376Z,101543.81
2024-04-16T14:04:22.422Z,101551.13
2024-04-16T14:09:26.418Z,101546.47
2024-04-16T14:14:30.510Z,101549.75
2024-04-16T14:19:34.244Z,101553.47
2024-04-16T14:24:39.733Z,101552.66
2024-04-16T14:29:43.551Z,101541.75
2024-04-16T14:34:47.811Z,101568.31
2024-04-16T14:39:51.904Z,101569.59
2024-04-16T14:44:55.741Z,101570.22
2024-04-16T14:49:59.743Z,101569.47
2024-04-16T14:55:03.716Z,101570.44
2024-04-16T15:00:08.481Z,101568.16
2024-04-16T15:05:12.310Z,101553.75
2024-04-16T15:10:16.216Z,101571.84
2024-04-16T15:15:21.710Z,101574.53
2024-04-16T15:20:25.672Z,101583.19
2024-04-16T15:25:29.655Z,101581.63
2024-04-16T15:30:33.537Z,101537.78
2024-04-16T15:35:54.987Z,101576.09
2024-04-16T15:40:59.255Z,101593.38
2024-04-16T15:46:03.882Z,101585.81
2024-04-16T15:51:07.961Z,101597.09
2024-04-16T15:56:12.210Z,101597.97
2024-04-16T16:01:16.058Z,101579.91
2024-04-16T16:06:20.447Z,101586.84
2024-04-16T16:11:24.536Z,101593.81
2024-04-16T16:16:28.736Z,101591.34
2024-04-16T16:21:32.604Z,101597.50
2024-04-16T16:26:36.238Z,101557.69
2024-04-16T16:31:41.191Z,101611.56
2024-04-16T16:36:45.196Z,101609.16
2024-04-16T16:41:49.150Z,101612.66
2024-04-16T16:46:53.369Z,101604.34
2024-04-16T16:51:57.138Z,101613.78
2024-04-16T16:57:02.529Z,101617.28
2024-04-16T17:02:07.002Z,101600.16
2024-04-16T17:07:11.152Z,101603.75
2024-04-16T17:12:16.960Z,101595.16
2024-04-16T17:17:20.902Z,101603.75
2024-04-16T17:22:24.857Z,101610.53
2024-04-16T17:27:29.125Z,101608.91
2024-04-16T17:32:33.159Z,101603.09
2024-04-16T17:37:37.150Z,101617.78
2024-04-16T17:42:40.965Z,101614.50
2024-04-16T17:47:44.932Z,101611.13
2024-04-16T17:52:50.434Z,101618.97
2024-04-16T17:57:54.410Z,101608.78
2024-04-16T18:02:58.328Z,101613.09
2024-04-16T18:08:02.301Z,101597.97
2024-04-16T18:13:06.393Z,101615.91
2024-04-16T18:18:10.574Z,101629.59
2024-04-16T18:23:16.114Z,101604.97
2024-04-16T18:28:22.017Z,101602.47
2024-04-16T18:33:25.894Z,101622.97
2024-04-16T18:38:30.336Z,101618.91
2024-04-16T18:43:34.277Z,101639.34
2024-04-16T18:48:38.690Z,101654.81
2024-04-16T18:53:42.906Z,101648.09
2024-04-16T18:58:46.968Z,101648.19
2024-04-16T19:03:50.942Z,101649.88
2024-04-16T19:08:54.758Z,101656.81
2024-04-16T19:13:58.738Z,101653.38
2024-04-16T19:19:05.030Z,101650.03
2024-04-16T19:24:08.769Z,101647.53
2024-04-16T19:29:12.663Z,101654.38
2024-04-16T19:34:16.567Z,101645.91
2024-04-16T19:39:20.646Z,101644.19
2024-04-16T19:44:24.641Z,101647.56
2024-04-16T19:49:28.717Z,101631.22
2024-04-16T19:54:33.418Z,101644.94
2024-04-16T19:59:40.757Z,101638.19
2024-04-16T20:04:47.356Z,101654.50
2024-04-16T20:09:55.310Z,101641.72
2024-04-16T20:14:59.255Z,101649.44
2024-04-16T20:20:03.165Z,101642.66
2024-04-16T20:25:07.145Z,101643.53
2024-04-16T20:30:11.915Z,101637.56
2024-04-16T20:35:15.754Z,101638.47
2024-04-16T20:40:19.860Z,101647.06
2024-04-16T20:45:23.792Z,101638.56
2024-04-16T20:50:27.846Z,101645.41
2024-04-16T20:55:32.185Z,101630.03
2024-04-16T21:00:36.664Z,101621.50
2024-04-16T21:05:40.955Z,101608.72
2024-04-16T21:10:47.104Z,101621.53
2024-04-16T21:15:55.381Z,101621.56
2024-04-16T21:20:59.322Z,101611.34
2024-04-16T21:26:03.171Z,101597.72
2024-04-16T21:31:07.281Z,101578.94
2024-04-16T21:36:11.124Z,101592.56
2024-04-16T21:41:14.916Z,101584.06
2024-04-16T21:46:19.183Z,101574.72
2024-04-16T21:51:23.209Z,101568.75
2024-04-16T21:56:35.090Z,101572.22
2024-04-16T22:01:38.895Z,101567.09
2024-04-16T22:06:43.228Z,101573.06
2024-04-16T22:11:47.039Z,101569.66
2024-04-16T22:16:51.131Z,101567.13
2024-04-16T22:21:54.829Z,101570.56
2024-04-16T22:26:58.840Z,101568.06
2024-04-16T22:32:02.776Z,101568.06
2024-04-16T22:37:06.740Z,101561.28
2024-04-16T22:42:10.739Z,101545.97
2024-04-16T22:47:14.606Z,101567.25
2024-04-16T22:52:18.542Z,101554.44
2024-04-16T22:57:22.421Z,101562.97
2024-04-16T23:02:26.363Z,101557.81
2024-04-16T23:07:30.351Z,101551.81
2024-04-16T23:12:34.689Z,101562.94
2024-04-16T23:17:38.592Z,101574.88
2024-04-16T23:22:42.798Z,101568.94
2024-04-16T23:27:46.578Z,101574.09
2024-04-16T23:32:50.727Z,101563.78
2024-04-16T23:37:54.912Z,101563.63
2024-04-16T23:42:58.882Z,101556.66
2024-04-16T23:48:02.907Z,101552.22
2024-04-16T23:53:06.849Z,101493.31
2024-04-16T23:58:10.814Z,101557.69
